sensor_id;sensor_type;location;lat;lon;timestamp;P1;durP1;ratioP1;P2;durP2;ratioP2
56519;SDS011;42420;53.586;10.052;2023-04-25T00:03:41;7.20;;;2.97;;
56519;SDS011;42420;53.586;10.052;2023-04-25T00:13:35;10.75;;;3.58;;
56519;SDS011;42420;53.586;10.052;2023-04-25T00:18:32;12.60;;;3.38;;
56519;SDS011;42420;53.586;10.052;2023-04-25T00:23:31;15.07;;;3.35;;
56519;SDS011;42420;53.586;10.052;2023-04-25T00:28:35;13.75;;;3.45;;
56519;SDS011;42420;53.586;10.052;2023-04-25T00:33:33;13.20;;;3.20;;
56519;SDS011;42420;53.586;10.052;2023-04-25T00:38:30;15.32;;;3.65;;
56519;SDS011;42420;53.586;10.052;2023-04-25T00:43:27;18.30;;;3.40;;
56519;SDS011;42420;53.586;10.052;2023-04-25T00:48:24;18.23;;;3.38;;
56519;SDS011;42420;53.586;10.052;2023-04-25T00:53:21;16.50;;;2.85;;
56519;SDS011;42420;53.586;10.052;2023-04-25T00:58:19;20.35;;;3.38;;
56519;SDS011;42420;53.586;10.052;2023-04-25T01:03:16;18.15;;;3.58;;
56519;SDS011;42420;53.586;10.052;2023-04-25T01:08:17;22.10;;;3.33;;
56519;SDS011;42420;53.586;10.052;2023-04-25T01:13:13;18.23;;;3.30;;
56519;SDS011;42420;53.586;10.052;2023-04-25T01:18:10;15.60;;;3.47;;
56519;SDS011;42420;53.586;10.052;2023-04-25T01:28:03;18.52;;;3.53;;
56519;SDS011;42420;53.586;10.052;2023-04-25T01:32:59;20.00;;;3.67;;
56519;SDS011;42420;53.586;10.052;2023-04-25T01:37:58;20.73;;;4.07;;
56519;SDS011;42420;53.586;10.052;2023-04-25T01:42:55;22.23;;;3.53;;
56519;SDS011;42420;53.586;10.052;2023-04-25T01:47:51;22.83;;;4.72;;
56519;SDS011;42420;53.586;10.052;2023-04-25T01:52:48;19.73;;;3.22;;
56519;SDS011;42420;53.586;10.052;2023-04-25T01:57:45;22.35;;;4.15;;
56519;SDS011;42420;53.586;10.052;2023-04-25T02:02:42;19.80;;;3.35;;
56519;SDS011;42420;53.586;10.052;2023-04-25T02:12:35;22.23;;;4.07;;
56519;SDS011;42420;53.586;10.052;2023-04-25T02:22:28;18.60;;;3.10;;
56519;SDS011;42420;53.586;10.052;2023-04-25T02:27:26;26.42;;;4.47;;
56519;SDS011;42420;53.586;10.052;2023-04-25T02:32:25;26.35;;;5.03;;
56519;SDS011;42420;53.586;10.052;2023-04-25T02:37:22;18.88;;;3.75;;
56519;SDS011;42420;53.586;10.052;2023-04-25T02:42:19;24.38;;;3.78;;
56519;SDS011;42420;53.586;10.052;2023-04-25T02:47:15;24.10;;;3.83;;
56519;SDS011;42420;53.586;10.052;2023-04-25T02:52:12;22.90;;;4.30;;
56519;SDS011;42420;53.586;10.052;2023-04-25T02:57:09;20.35;;;4.32;;
56519;SDS011;42420;53.586;10.052;2023-04-25T03:02:05;25.60;;;4.57;;
56519;SDS011;42420;53.586;10.052;2023-04-25T03:07:02;21.45;;;3.45;;
56519;SDS011;42420;53.586;10.052;2023-04-25T03:11:58;16.48;;;3.20;;
56519;SDS011;42420;53.586;10.052;2023-04-25T03:16:55;18.17;;;3.08;;
56519;SDS011;42420;53.586;10.052;2023-04-25T03:21:52;19.75;;;3.22;;
56519;SDS011;42420;53.586;10.052;2023-04-25T03:26:51;19.45;;;3.53;;
56519;SDS011;42420;53.586;10.052;2023-04-25T03:31:48;18.42;;;3.53;;
56519;SDS011;42420;53.586;10.052;2023-04-25T03:49:05;16.02;;;3.95;;
56519;SDS011;42420;53.586;10.052;2023-04-25T03:54:02;15.48;;;2.85;;
56519;SDS011;42420;53.586;10.052;2023-04-25T03:58:58;15.68;;;2.80;;
56519;SDS011;42420;53.586;10.052;2023-04-25T04:03:55;16.40;;;3.30;;
56519;SDS011;42420;53.586;10.052;2023-04-25T04:08:52;20.20;;;4.35;;
56519;SDS011;42420;53.586;10.052;2023-04-25T04:13:57;16.45;;;2.97;;
56519;SDS011;42420;53.586;10.052;2023-04-25T04:19:02;19.15;;;3.67;;
56519;SDS011;42420;53.586;10.052;2023-04-25T04:24:11;17.40;;;3.05;;
56519;SDS011;42420;53.586;10.052;2023-04-25T04:34:53;15.10;;;3.28;;
56519;SDS011;42420;53.586;10.052;2023-04-25T04:39:53;16.48;;;3.95;;
56519;SDS011;42420;53.586;10.052;2023-04-25T14:49:00;6.00;;;1.15;;
56519;SDS011;42420;53.586;10.052;2023-04-25T14:53:57;9.23;;;1.48;;
56519;SDS011;42420;53.586;10.052;2023-04-25T14:59:04;6.53;;;1.30;;
56519;SDS011;42420;53.586;10.052;2023-04-25T15:05:17;7.18;;;1.08;;
56519;SDS011;42420;53.586;10.052;2023-04-25T15:16:44;10.00;;;2.15;;
56519;SDS011;42420;53.586;10.052;2023-04-25T18:10:19;11.07;;;2.72;;
56519;SDS011;42420;53.586;10.052;2023-04-25T18:15:16;7.60;;;1.75;;
56519;SDS011;42420;53.586;10.052;2023-04-25T18:20:13;9.10;;;2.10;;
56519;SDS011;42420;53.586;10.052;2023-04-25T18:25:11;8.60;;;1.63;;
56519;SDS011;42420;53.586;10.052;2023-04-25T18:30:09;13.68;;;2.15;;
56519;SDS011;42420;53.586;10.052;2023-04-25T18:35:06;10.52;;;2.05;;
56519;SDS011;42420;53.586;10.052;2023-04-25T19:50:52;10.63;;;1.80;;
56519;SDS011;42420;53.586;10.052;2023-04-25T19:55:52;9.32;;;2.10;;
56519;SDS011;42420;53.586;10.052;2023-04-25T20:00:53;8.30;;;1.65;;
56519;SDS011;42420;53.586;10.052;2023-04-25T20:05:56;7.95;;;1.60;;
56519;SDS011;42420;53.586;10.052;2023-04-25T20:10:53;10.05;;;1.90;;
56519;SDS011;42420;53.586;10.052;2023-04-25T20:15:52;10.23;;;1.95;;
56519;SDS011;42420;53.586;10.052;2023-04-25T20:20:49;9.18;;;1.60;;
56519;SDS011;42420;53.586;10.052;2023-04-25T20:25:46;9.30;;;1.67;;
56519;SDS011;42420;53.586;10.052;2023-04-25T20:30:44;12.10;;;1.73;;
56519;SDS011;42420;53.586;10.052;2023-04-25T20:35:41;12.02;;;1.73;;
56519;SDS011;42420;53.586;10.052;2023-04-25T20:40:37;8.88;;;1.67;;
56519;SDS011;42420;53.586;10.052;2023-04-25T20:45:34;10.52;;;1.85;;
56519;SDS011;42420;53.586;10.052;2023-04-25T20:50:32;8.63;;;1.60;;
56519;SDS011;42420;53.586;10.052;2023-04-25T20:55:29;7.25;;;1.80;;
56519;SDS011;42420;53.586;10.052;2023-04-25T21:00:25;10.98;;;1.58;;
56519;SDS011;42420;53.586;10.052;2023-04-25T21:05:24;10.48;;;1.38;;
56519;SDS011;42420;53.586;10.052;2023-04-25T21:10:20;9.05;;;1.95;;
56519;SDS011;42420;53.586;10.052;2023-04-25T21:15:17;9.73;;;2.10;;
56519;SDS011;42420;53.586;10.052;2023-04-25T21:20:19;7.15;;;1.83;;
56519;SDS011;42420;53.586;10.052;2023-04-25T21:25:17;10.20;;;1.85;;
56519;SDS011;42420;53.586;10.052;2023-04-25T21:30:18;9.10;;;1.77;;
56519;SDS011;42420;53.586;10.052;2023-04-25T21:35:19;7.65;;;1.48;;
56519;SDS011;42420;53.586;10.052;2023-04-25T21:40:16;9.25;;;1.70;;
56519;SDS011;42420;53.586;10.052;2023-04-25T21:45:13;7.47;;;1.48;;
56519;SDS011;42420;53.586;10.052;2023-04-25T21:50:09;11.40;;;1.45;;
56519;SDS011;42420;53.586;10.052;2023-04-25T21:55:07;8.95;;;1.58;;
56519;SDS011;42420;53.586;10.052;2023-04-25T22:00:04;8.70;;;1.15;;
56519;SDS011;42420;53.586;10.052;2023-04-25T22:05:15;7.55;;;1.40;;
56519;SDS011;42420;53.586;10.052;2023-04-25T22:10:19;6.78;;;1.90;;
56519;SDS011;42420;53.586;10.052;2023-04-25T22:15:16;6.03;;;0.90;;
56519;SDS011;42420;53.586;10.052;2023-04-25T22:20:14;6.93;;;1.15;;
56519;SDS011;42420;53.586;10.052;2023-04-25T22:25:11;5.72;;;0.82;;
56519;SDS011;42420;53.586;10.052;2023-04-25T22:30:08;9.13;;;1.95;;
56519;SDS011;42420;53.586;10.052;2023-04-25T22:35:06;5.78;;;1.00;;
56519;SDS011;42420;53.586;10.052;2023-04-25T22:45:05;5.75;;;1.23;;
56519;SDS011;42420;53.586;10.052;2023-04-25T22:50:03;5.97;;;1.20;;
56519;SDS011;42420;53.586;10.052;2023-04-25T22:55:02;9.32;;;1.20;;
56519;SDS011;42420;53.586;10.052;2023-04-25T23:04:56;3.85;;;1.20;;
56519;SDS011;42420;53.586;10.052;2023-04-25T23:09:55;6.40;;;1.15;;
56519;SDS011;42420;53.586;10.052;2023-04-25T23:14:51;6.85;;;1.20;;
56519;SDS011;42420;53.586;10.052;2023-04-25T23:19:48;7.03;;;1.17;;
56519;SDS011;42420;53.586;10.052;2023-04-25T23:24:47;12.57;;;2.15;;
56519;SDS011;42420;53.586;10.052;2023-04-25T23:29:49;6.68;;;1.10;;
56519;SDS011;42420;53.586;10.052;2023-04-25T23:34:49;9.95;;;1.40;;
56519;SDS011;42420;53.586;10.052;2023-04-25T23:39:47;11.43;;;1.77;;
56519;SDS011;42420;53.586;10.052;2023-04-25T23:44:45;16.20;;;2.85;;
56519;SDS011;42420;53.586;10.052;2023-04-25T23:49:42;8.20;;;1.45;;
56519;SDS011;42420;53.586;10.052;2023-04-25T23:54:38;7.95;;;1.40;;
56519;SDS011;42420;53.586;10.052;2023-04-25T23:59:35;9.27;;;1.45;;
